Wuustwezel, Belgium
Current Conditions -  °F | °C
As of 5:25 AM on Monday 20 Oct 2014 (Local Time) from EHWO Reporting Station
Scattered Clouds Scattered Clouds  
Wind Chill: 57°   Ceiling: Unl
Heat Index: 57°   Visibility: 6mi
Dew Point: 54°   Wind: 13mph
Humidity: 88%   Direction: 240°WSW
Pressure: 30"   Gusts: NA
Location:  51.39°N, 4.6°E
Report Text: EHWO 200325Z AUTO 24011KT 9999 FEW021 SCT024 14/12 Q1016 WHT
Loading
Personal Weather Stations






























Interactive Weather Map New forecast layout! Learn more

10-Day Weather Forecast

Advertisements
Track Severe Weather on mobile